createdAt,value
2023-01-04T00:02:33.885Z,99755.97
2023-01-04T00:05:15.932Z,99757.31
2023-01-04T00:08:04.767Z,99751.53
2023-01-04T00:10:46.920Z,99746.56
2023-01-04T00:13:35.733Z,99742.13
2023-01-04T00:16:30.157Z,99743.25
2023-01-04T00:19:11.673Z,99758.59
2023-01-04T00:21:59.923Z,99749.69
2023-01-04T00:24:41.612Z,99759.44
2023-01-04T00:27:30.024Z,99760.22
2023-01-04T00:30:12.754Z,99770.78
2023-01-04T00:33:02.112Z,99769.66
2023-01-04T00:35:46.230Z,99774.25
2023-01-04T00:38:34.930Z,99783.84
2023-01-04T00:41:49.256Z,99790.22
2023-01-04T00:44:22.551Z,99794.81
2023-01-04T00:47:13.720Z,99789.94
2023-01-04T00:49:55.848Z,99798.09
2023-01-04T00:52:44.670Z,99794.13
2023-01-04T00:55:39.641Z,99800.25
2023-01-04T00:58:27.908Z,99790.50
2023-01-04T01:01:14.650Z,99798.91
2023-01-04T01:04:07.299Z,99796.78
2023-01-04T01:06:50.798Z,99801.22
2023-01-04T01:09:38.929Z,99795.50
2023-01-04T01:12:21.746Z,99798.72
2023-01-04T01:15:04.022Z,99797.28
2023-01-04T01:17:52.637Z,99797.47
2023-01-04T01:20:34.901Z,99807.44
2023-01-04T01:23:23.697Z,99812.81
2023-01-04T01:26:18.677Z,99811.72
2023-01-04T01:29:07.686Z,99821.25
2023-01-04T01:31:50.073Z,99814.63
2023-01-04T01:34:38.635Z,99820.53
2023-01-04T01:37:26.973Z,99816.63
2023-01-04T01:40:09.664Z,99828.53
2023-01-04T01:42:52.099Z,99837.78
2023-01-04T01:45:48.691Z,99839.03
2023-01-04T01:48:31.518Z,99839.44
2023-01-04T01:51:20.615Z,99845.22
2023-01-04T01:54:21.491Z,99858.03
2023-01-04T01:57:15.703Z,99857.34
2023-01-04T02:00:02.064Z,99856.56
2023-01-04T02:03:27.273Z,99862.16
2023-01-04T02:06:12.944Z,99866.28
2023-01-04T02:09:02.783Z,99866.97
2023-01-04T02:11:44.966Z,99869.78
2023-01-04T02:14:37.744Z,99861.19
2023-01-04T02:17:25.430Z,99879.22
2023-01-04T02:20:43.675Z,99869.69
2023-01-04T02:24:02.663Z,99878.00
2023-01-04T02:27:15.713Z,99881.63
2023-01-04T02:30:32.629Z,99888.09
2023-01-04T02:33:53.273Z,99891.09
2023-01-04T02:36:55.581Z,99896.69
2023-01-04T02:39:53.711Z,99902.75
2023-01-04T02:43:15.722Z,99913.28
2023-01-04T02:46:16.749Z,99912.75
2023-01-04T02:49:24.692Z,99921.69
2023-01-04T02:52:06.969Z,99927.66
2023-01-04T02:54:57.590Z,99931.72
2023-01-04T02:58:01.657Z,99942.16
2023-01-04T03:01:46.841Z,99945.81
2023-01-04T03:04:55.959Z,99940.31
2023-01-04T03:08:28.603Z,99944.06
2023-01-04T03:11:39.503Z,99945.25
2023-01-04T03:14:32.443Z,99954.47
2023-01-04T03:17:18.623Z,99960.28
2023-01-04T03:20:10.672Z,99963.28
2023-01-04T03:23:22.252Z,99977.25
2023-01-04T03:26:52.601Z,99975.75
2023-01-04T03:30:18.106Z,99976.34
2023-01-04T03:33:35.729Z,99976.84
2023-01-04T03:36:42.959Z,99994.81
2023-01-04T03:40:09.673Z,100000.50
2023-01-04T03:43:40.442Z,100011.84
2023-01-04T03:47:02.801Z,100016.88
2023-01-04T03:49:58.388Z,100027.81
2023-01-04T03:52:52.829Z,100032.66
2023-01-04T03:55:43.939Z,100034.69
2023-01-04T03:58:28.537Z,100023.38
2023-01-04T04:01:19.672Z,100035.38
2023-01-04T04:04:21.512Z,100035.69
2023-01-04T04:07:29.690Z,100043.38
2023-01-04T04:10:12.157Z,100039.16
2023-01-04T04:13:00.670Z,100035.56
2023-01-04T04:15:43.012Z,100036.00
2023-01-04T04:18:31.597Z,100031.91
2023-01-04T04:21:14.054Z,100048.84
2023-01-04T04:24:05.537Z,100050.41
2023-01-04T04:26:48.136Z,100051.94
2023-01-04T04:29:36.659Z,100055.03
2023-01-04T04:32:18.993Z,100055.84
2023-01-04T04:35:07.683Z,100067.63
2023-01-04T04:37:49.928Z,100063.47
2023-01-04T04:40:56.698Z,100072.41
2023-01-04T04:43:38.897Z,100084.56
2023-01-04T04:46:27.654Z,100080.78
2023-01-04T04:49:17.519Z,100077.59
2023-01-04T04:52:06.614Z,100074.47
2023-01-04T04:54:54.944Z,100082.81
2023-01-04T04:57:36.662Z,100077.50
2023-01-04T05:00:19.075Z,100077.28
2023-01-04T05:03:07.777Z,100074.72
2023-01-04T05:05:57.029Z,100078.66
2023-01-04T05:08:38.568Z,100078.66
2023-01-04T05:11:40.560Z,100075.97
2023-01-04T05:14:29.696Z,100070.63
2023-01-04T05:17:18.542Z,100069.31
2023-01-04T05:20:00.510Z,100075.41
2023-01-04T05:22:48.836Z,100080.59
2023-01-04T05:25:31.577Z,100072.38
2023-01-04T05:28:19.851Z,100074.31
2023-01-04T05:31:03.599Z,100064.41
2023-01-04T05:33:52.658Z,100064.84
2023-01-04T05:36:34.932Z,100068.50
2023-01-04T05:39:23.534Z,100060.38
2023-01-04T05:42:30.648Z,100058.56
2023-01-04T05:45:22.139Z,100053.09
2023-01-04T05:48:03.597Z,100054.75
2023-01-04T05:50:46.951Z,100042.50
2023-01-04T05:53:35.582Z,100037.19
2023-01-04T05:56:23.917Z,100034.16
2023-01-04T05:59:06.545Z,100042.25
2023-01-04T06:01:55.781Z,100030.88
2023-01-04T06:04:37.985Z,100028.63
2023-01-04T06:07:26.565Z,100027.78
2023-01-04T06:10:08.864Z,100025.44
2023-01-04T06:12:57.539Z,100024.38
2023-01-04T06:15:46.588Z,100014.84
2023-01-04T06:18:34.942Z,100013.47
2023-01-04T06:21:16.912Z,100019.69
2023-01-04T06:24:04.909Z,100017.03
2023-01-04T06:26:47.527Z,100005.19
2023-01-04T06:29:37.003Z,100004.66
2023-01-04T06:32:19.638Z,100001.78
2023-01-04T06:35:08.634Z,100001.03
2023-01-04T06:37:50.930Z,99991.06
2023-01-04T06:40:39.569Z,99978.00
2023-01-04T06:43:21.932Z,99981.78
2023-01-04T06:46:11.651Z,99982.28
2023-01-04T06:48:55.039Z,99970.63
2023-01-04T06:51:43.645Z,99971.97
2023-01-04T06:54:40.481Z,99960.66
2023-01-04T06:57:29.462Z,99962.78
2023-01-04T07:00:13.869Z,99956.16
2023-01-04T07:03:13.935Z,99946.63
2023-01-04T07:05:56.927Z,99946.53
2023-01-04T07:08:45.620Z,99941.69
2023-01-04T07:11:27.942Z,99932.59
2023-01-04T07:14:16.680Z,99927.00
2023-01-04T07:16:58.976Z,99921.09
2023-01-04T07:19:47.649Z,99922.69
2023-01-04T07:22:29.966Z,99921.22
2023-01-04T07:25:18.649Z,99918.91
2023-01-04T07:28:01.906Z,99918.19
2023-01-04T07:30:50.672Z,99923.31
2023-01-04T07:33:33.088Z,99921.59
2023-01-04T07:36:21.545Z,99919.31
2023-01-04T07:39:10.503Z,99907.72
2023-01-04T07:42:05.665Z,99907.91
2023-01-04T07:44:48.222Z,99902.94
2023-01-04T07:47:37.697Z,99889.22
2023-01-04T07:50:19.796Z,99882.81
2023-01-04T07:53:08.580Z,99885.50
2023-01-04T07:56:01.928Z,99867.03
2023-01-04T07:58:44.444Z,99869.25
2023-01-04T08:01:36.596Z,99864.94
2023-01-04T08:04:21.649Z,99861.72
2023-01-04T08:07:09.889Z,99855.84
2023-01-04T08:09:52.562Z,99862.22
2023-01-04T08:12:40.843Z,99851.91
2023-01-04T08:15:22.496Z,99848.59
2023-01-04T08:18:11.882Z,99847.38
2023-01-04T08:20:58.389Z,99829.88
2023-01-04T08:23:47.539Z,99835.91
2023-01-04T08:26:37.890Z,99829.41
2023-01-04T08:29:19.765Z,99821.06
2023-01-04T08:32:08.538Z,99816.94
2023-01-04T08:34:50.807Z,99815.31
2023-01-04T08:37:39.732Z,99807.59
2023-01-04T08:40:21.789Z,99806.81
2023-01-04T08:43:10.585Z,99796.59
2023-01-04T08:45:59.522Z,99799.09
2023-01-04T08:48:49.546Z,99799.84
2023-01-04T08:51:37.902Z,99798.13
2023-01-04T08:54:21.459Z,99789.97
2023-01-04T08:57:16.636Z,99789.75
2023-01-04T09:00:05.478Z,99782.44
2023-01-04T09:02:47.801Z,99783.66
2023-01-04T09:05:36.520Z,99772.88
2023-01-04T09:08:18.886Z,99772.72
2023-01-04T09:11:11.638Z,99764.34
2023-01-04T09:13:54.935Z,99759.16
2023-01-04T09:16:44.820Z,99761.81
2023-01-04T09:19:26.885Z,99757.88
2023-01-04T09:22:15.669Z,99757.31
2023-01-04T09:24:57.863Z,99752.38
2023-01-04T09:27:47.598Z,99752.75
2023-01-04T09:30:32.760Z,99754.00
2023-01-04T09:33:27.872Z,99746.59
2023-01-04T09:36:26.134Z,99742.97
2023-01-04T09:39:11.839Z,99747.34
2023-01-04T09:42:06.837Z,99741.66
2023-01-04T09:45:25.525Z,99743.53
2023-01-04T09:48:25.028Z,99738.94
2023-01-04T09:51:31.635Z,99739.16
2023-01-04T09:54:34.442Z,99736.44
2023-01-04T09:57:53.659Z,99732.69
2023-01-04T10:01:11.685Z,99728.41
2023-01-04T10:04:11.494Z,99727.84
2023-01-04T10:06:55.372Z,99722.53
2023-01-04T10:09:46.535Z,99719.25
2023-01-04T10:13:17.494Z,99723.91
2023-01-04T10:34:31.076Z,99706.72
2023-01-04T10:37:19.188Z,99705.47
2023-01-04T10:40:09.927Z,99698.34
2023-01-04T10:43:07.944Z,99705.00
2023-01-04T10:46:13.435Z,99701.97
2023-01-04T10:49:23.972Z,99700.50
2023-01-04T10:52:15.303Z,99702.16
2023-01-04T10:55:11.071Z,99703.06
2023-01-04T10:58:28.342Z,99699.09
2023-01-04T11:01:33.173Z,99693.69
2023-01-04T11:04:48.302Z,99698.34
2023-01-04T11:07:50.061Z,99699.75
2023-01-04T11:10:43.286Z,99701.06
2023-01-04T11:13:32.900Z,99709.34
2023-01-04T11:16:23.040Z,99701.69
2023-01-04T11:19:13.272Z,99706.81
2023-01-04T11:22:05.063Z,99705.66
2023-01-04T11:25:33.073Z,99700.22
2023-01-04T11:28:17.960Z,99699.69
2023-01-04T11:31:18.309Z,99697.75
2023-01-04T11:34:11.872Z,99699.25
2023-01-04T11:36:55.355Z,99704.13
2023-01-04T11:39:45.909Z,99706.00
2023-01-04T11:42:30.921Z,99702.84
2023-01-04T11:45:31.886Z,99699.34
2023-01-04T11:48:20.900Z,99693.00
2023-01-04T11:51:16.896Z,99690.53
2023-01-04T11:54:11.823Z,99688.53
2023-01-04T11:57:18.011Z,99696.81
2023-01-04T12:00:33.043Z,99694.09
2023-01-04T12:03:26.288Z,99696.91
2023-01-04T12:06:08.985Z,99701.91
2023-01-04T12:08:58.047Z,99704.63
2023-01-04T12:11:44.305Z,99709.75
2023-01-04T12:14:43.845Z,99704.53
2023-01-04T12:17:52.360Z,99720.19
2023-01-04T12:20:40.897Z,99726.78
2023-01-04T12:23:23.403Z,99716.59
2023-01-04T12:26:12.006Z,99722.81
2023-01-04T12:28:59.426Z,99723.16
2023-01-04T12:31:53.962Z,99720.63
2023-01-04T12:34:42.362Z,99726.00
2023-01-04T12:37:54.066Z,99729.97
2023-01-04T12:40:48.877Z,99731.81
2023-01-04T12:43:44.834Z,99721.25
2023-01-04T12:46:50.340Z,99730.25
2023-01-04T12:49:43.371Z,99735.31
2023-01-04T12:52:47.988Z,99736.16
2023-01-04T12:55:43.657Z,99732.69
2023-01-04T12:59:23.665Z,99736.25
2023-01-04T13:01:42.273Z,99740.47
2023-01-04T13:04:44.490Z,99741.19
2023-01-04T13:08:11.996Z,99744.38
2023-01-04T13:10:57.003Z,99750.47
2023-01-04T13:14:04.958Z,99738.47
2023-01-04T13:17:18.350Z,99746.56
2023-01-04T13:20:06.932Z,99748.50
2023-01-04T13:23:02.297Z,99742.75
2023-01-04T13:25:45.016Z,99747.94
2023-01-04T13:28:33.272Z,99744.91
2023-01-04T13:31:15.984Z,99745.41
2023-01-04T13:34:06.280Z,99742.91
2023-01-04T13:36:48.957Z,99740.91
2023-01-04T13:39:38.258Z,99752.69
2023-01-04T13:42:32.956Z,99764.44
2023-01-04T13:45:36.307Z,99760.91
2023-01-04T13:48:23.946Z,99759.13
2023-01-04T13:51:36.122Z,99754.69
2023-01-04T13:54:28.878Z,99760.34
2023-01-04T13:57:27.980Z,99756.97
2023-01-04T14:00:15.730Z,99766.88
2023-01-04T14:03:41.098Z,99765.53
2023-01-04T14:06:31.338Z,99764.78
2023-01-04T14:09:21.054Z,99772.75
2023-01-04T14:12:14.930Z,99785.84
2023-01-04T14:15:09.971Z,99785.81
2023-01-04T14:17:56.018Z,99782.69
2023-01-04T14:20:48.862Z,99787.16
2023-01-04T14:23:39.956Z,99786.66
2023-01-04T14:26:48.871Z,99790.13
2023-01-04T14:29:32.671Z,99791.97
2023-01-04T14:32:24.024Z,99793.44
2023-01-04T14:35:15.239Z,99789.66
2023-01-04T14:38:04.081Z,99791.47
2023-01-04T14:40:54.215Z,99793.94
2023-01-04T14:44:16.908Z,99797.91
2023-01-04T14:47:07.066Z,99800.75
2023-01-04T14:49:56.011Z,99794.13
2023-01-04T14:52:44.194Z,99800.38
2023-01-04T14:55:26.938Z,99804.34
2023-01-04T14:58:15.310Z,99815.63
2023-01-04T15:00:56.924Z,99811.81
2023-01-04T15:03:47.038Z,99809.66
2023-01-04T15:06:29.214Z,99816.47
2023-01-04T15:09:18.861Z,99821.91
2023-01-04T15:12:01.336Z,99823.22
2023-01-04T15:14:50.017Z,99828.66
2023-01-04T15:17:32.208Z,99817.59
2023-01-04T15:20:21.998Z,99829.69
2023-01-04T15:23:04.252Z,99823.56
2023-01-04T15:25:52.857Z,99827.19
2023-01-04T15:28:35.209Z,99833.56
2023-01-04T15:31:29.200Z,99829.72
2023-01-04T15:34:19.280Z,99831.00
2023-01-04T15:37:01.087Z,99825.34
2023-01-04T15:39:43.120Z,99835.38
2023-01-04T15:42:49.935Z,99849.72
2023-01-04T15:45:38.113Z,99839.19
2023-01-04T15:48:26.901Z,99846.25
2023-01-04T15:51:15.906Z,99848.25
2023-01-04T15:54:00.281Z,99844.81
2023-01-04T15:56:49.022Z,99850.19
2023-01-04T15:59:32.212Z,99850.50
2023-01-04T16:02:21.334Z,99849.75
2023-01-04T16:05:03.199Z,99858.19
2023-01-04T16:07:56.006Z,99858.09
2023-01-04T16:10:38.303Z,99855.28
2023-01-04T16:13:26.857Z,99857.47
2023-01-04T16:16:09.369Z,99859.00
2023-01-04T16:19:00.869Z,99865.97
2023-01-04T16:21:49.900Z,99864.31
2023-01-04T16:25:10.026Z,99861.88
2023-01-04T16:27:48.989Z,99864.66
2023-01-04T16:30:36.073Z,99862.38
2023-01-04T16:33:24.872Z,99862.53
2023-01-04T16:36:09.667Z,99864.97
2023-01-04T16:39:00.993Z,99863.28
2023-01-04T16:41:44.190Z,99864.22
2023-01-04T16:44:33.063Z,99868.84
2023-01-04T16:47:21.384Z,99870.44
2023-01-04T16:50:03.908Z,99881.75
2023-01-04T16:52:46.123Z,99888.63
2023-01-04T16:55:34.862Z,99893.53
2023-01-04T16:58:23.868Z,99898.53
2023-01-04T17:01:31.089Z,99896.63
2023-01-04T17:04:21.025Z,99894.19
2023-01-04T17:07:10.309Z,99893.78
2023-01-04T17:09:58.538Z,99894.34
2023-01-04T17:12:48.456Z,99893.78
2023-01-04T17:15:45.219Z,99899.81
2023-01-04T17:18:27.319Z,99886.78
2023-01-04T17:21:35.836Z,99892.03
2023-01-04T17:24:18.460Z,99893.72
2023-01-04T17:27:06.926Z,99896.03
2023-01-04T17:29:56.825Z,99891.66
2023-01-04T17:32:45.945Z,99897.53
2023-01-04T17:35:28.276Z,99894.75
2023-01-04T17:38:16.944Z,99898.59
2023-01-04T17:40:59.256Z,99895.56
2023-01-04T17:43:48.878Z,99893.47
2023-01-04T17:46:41.971Z,99889.53
2023-01-04T17:49:32.387Z,99888.63
2023-01-04T17:52:21.042Z,99877.03
2023-01-04T17:55:11.220Z,99877.78
2023-01-04T17:57:53.878Z,99879.13
2023-01-04T18:00:36.299Z,99875.06
2023-01-04T18:03:24.889Z,99879.75
2023-01-04T18:06:25.319Z,99883.56
2023-01-04T18:09:09.948Z,99880.75
2023-01-04T18:11:59.364Z,99882.53
2023-01-04T18:14:40.773Z,99885.34
2023-01-04T18:17:24.317Z,99884.44
2023-01-04T18:20:23.968Z,99880.75
2023-01-04T18:23:07.182Z,99872.13
2023-01-04T18:25:56.976Z,99870.94
2023-01-04T18:28:46.226Z,99880.09
2023-01-04T18:31:31.066Z,99871.28
2023-01-04T18:34:20.232Z,99880.28
2023-01-04T18:37:02.849Z,99879.47
2023-01-04T18:39:45.327Z,99874.75
2023-01-04T18:42:34.034Z,99880.84
2023-01-04T18:45:24.210Z,99876.69
2023-01-04T18:48:05.779Z,99880.16
2023-01-04T18:50:55.348Z,99870.75
2023-01-04T18:53:36.951Z,99872.28
2023-01-04T18:56:26.797Z,99868.38
2023-01-04T18:59:09.368Z,99872.41
2023-01-04T19:01:58.090Z,99867.81
2023-01-04T19:04:42.236Z,99870.44
2023-01-04T19:07:30.982Z,99866.44
2023-01-04T19:10:14.310Z,99867.28
2023-01-04T19:13:03.197Z,99871.88
2023-01-04T19:15:47.675Z,99871.28
2023-01-04T19:18:36.858Z,99869.38
2023-01-04T19:21:25.949Z,99870.56
2023-01-04T19:24:08.353Z,99864.34
2023-01-04T19:26:58.980Z,99872.97
2023-01-04T19:29:47.447Z,99869.78
2023-01-04T19:32:33.386Z,99864.78
2023-01-04T19:35:22.220Z,99860.22
2023-01-04T19:38:03.979Z,99863.56
2023-01-04T19:40:52.337Z,99856.63
2023-01-04T19:43:35.004Z,99857.59
2023-01-04T19:46:24.465Z,99860.47
2023-01-04T19:49:12.409Z,99860.34
2023-01-04T19:52:05.326Z,99854.66
2023-01-04T19:54:46.935Z,99853.81
2023-01-04T19:57:29.151Z,99856.19
2023-01-04T20:00:20.895Z,99854.13
2023-01-04T20:03:10.073Z,99852.94
2023-01-04T20:05:58.996Z,99852.94
2023-01-04T20:08:42.600Z,99856.31
2023-01-04T20:11:32.086Z,99859.78
2023-01-04T20:14:20.148Z,99857.28
2023-01-04T20:17:02.965Z,99854.78
2023-01-04T20:19:45.139Z,99854.78
2023-01-04T20:22:33.805Z,99857.47
2023-01-04T20:25:22.988Z,99863.66
2023-01-04T20:28:05.271Z,99859.75
2023-01-04T20:30:53.971Z,99857.28
2023-01-04T20:33:43.140Z,99857.47
2023-01-04T20:36:30.914Z,99863.69
2023-01-04T20:39:20.205Z,99863.81
2023-01-04T20:42:20.931Z,99858.13
2023-01-04T20:45:09.135Z,99866.72
2023-01-04T20:47:50.871Z,99865.47
2023-01-04T20:50:34.353Z,99862.03
2023-01-04T20:53:22.836Z,99869.63
2023-01-04T20:56:23.127Z,99862.84
2023-01-04T20:59:11.830Z,99868.09
2023-01-04T21:02:01.335Z,99872.28
2023-01-04T21:04:42.936Z,99866.97
2023-01-04T21:07:31.915Z,99862.16
2023-01-04T21:10:14.207Z,99863.81
2023-01-04T21:13:02.787Z,99861.19
2023-01-04T21:15:46.197Z,99852.59
2023-01-04T21:18:34.856Z,99854.25
2023-01-04T21:21:21.310Z,99849.13
2023-01-04T21:24:10.872Z,99855.25
2023-01-04T21:26:59.781Z,99838.19
2023-01-04T21:29:48.798Z,99841.66
2023-01-04T21:32:31.676Z,99841.50
2023-01-04T21:35:19.899Z,99836.28
2023-01-04T21:38:02.147Z,99845.53
2023-01-04T21:40:50.813Z,99848.44
2023-01-04T21:43:33.156Z,99847.34
2023-01-04T21:46:23.895Z,99840.69
2023-01-04T21:49:08.161Z,99835.00
2023-01-04T21:51:56.910Z,99844.00
2023-01-04T21:54:45.804Z,99841.38
2023-01-04T21:57:34.737Z,99835.28
2023-01-04T22:00:19.144Z,99823.94
2023-01-04T22:03:08.029Z,99829.03
2023-01-04T22:05:50.121Z,99827.78
2023-01-04T22:08:38.875Z,99825.56
2023-01-04T22:11:28.884Z,99823.34
2023-01-04T22:14:11.647Z,99816.66
2023-01-04T22:17:00.967Z,99818.00
2023-01-04T22:19:49.136Z,99813.47
2023-01-04T22:22:30.949Z,99819.47
2023-01-04T22:25:19.853Z,99807.91
2023-01-04T22:28:02.621Z,99806.13
2023-01-04T22:30:51.865Z,99799.00
2023-01-04T22:33:41.184Z,99802.91
2023-01-04T22:36:30.205Z,99800.28
2023-01-04T22:39:12.852Z,99796.16
2023-01-04T22:42:01.810Z,99790.19
2023-01-04T22:44:44.130Z,99796.59
2023-01-04T22:47:32.780Z,99794.66
2023-01-04T22:50:15.229Z,99791.34
2023-01-04T22:53:03.887Z,99784.59
2023-01-04T22:56:23.532Z,99790.53
2023-01-04T22:59:04.840Z,99781.25
2023-01-04T23:01:48.170Z,99779.66
2023-01-04T23:04:36.830Z,99775.25
2023-01-04T23:07:19.142Z,99775.59
2023-01-04T23:10:07.831Z,99771.44
2023-01-04T23:12:56.762Z,99771.97
2023-01-04T23:15:48.013Z,99768.50
2023-01-04T23:18:30.131Z,99769.44
2023-01-04T23:21:18.887Z,99762.09
2023-01-04T23:24:01.145Z,99767.97
2023-01-04T23:26:50.855Z,99766.59
2023-01-04T23:29:33.141Z,99764.19
2023-01-04T23:32:21.808Z,99762.53
2023-01-04T23:35:17.776Z,99765.88
2023-01-04T23:38:06.794Z,99763.66
2023-01-04T23:41:01.716Z,99765.84
2023-01-04T23:43:50.071Z,99769.78
2023-01-04T23:46:31.762Z,99767.31
2023-01-04T23:49:21.121Z,99767.03
2023-01-04T23:52:03.721Z,99771.75
2023-01-04T23:54:52.897Z,99777.41
2023-01-04T23:57:35.108Z,99781.56
